Time;durP1;ratioP1;P1;durP2;ratioP2;P2;SDS_P1;SDS_P2;PMS_P1;PMS_P2;Temp;Humidity;BMP_temperature;BMP_pressure;BME280_temperature;BME280_humidity;BME280_pressure;Samples;Min_cycle;Max_cycle;Signal;HPM_P1;HPM_P2
2021/10/03 00:00:11;;;;;;;5.85;5.25;;;;;;;;;;5034226;28;20214;-47
2021/10/03 00:02:39;;;;;;;7.20;5.20;;;;;;;;;;5017227;28;20199;-47
2021/10/03 00:05:06;;;;;;;6.30;5.70;;;;;;;;;;5033401;28;20176;-47
2021/10/03 00:07:32;;;;;;;5.75;5.25;;;;;;;;;;5024029;28;20239;-47
2021/10/03 00:09:58;;;;;;;7.68;5.72;;;;;;;;;;5015597;28;20646;-47
2021/10/03 00:12:24;;;;;;;7.20;5.18;;;;;;;;;;5018167;28;20289;-47
2021/10/03 00:14:51;;;;;;;5.07;4.57;;;;;;;;;;5032028;28;20226;-47
2021/10/03 00:17:17;;;;;;;5.72;5.05;;;;;;;;;;5016610;28;20191;-47
2021/10/03 00:19:43;;;;;;;6.10;5.18;;;;;;;;;;5015497;28;20184;-47
2021/10/03 00:22:10;;;;;;;7.90;4.90;;;;;;;;;;5015303;28;20211;-47
2021/10/03 00:24:36;;;;;;;6.40;5.38;;;;;;;;;;5014019;28;20894;-47
2021/10/03 00:27:02;;;;;;;6.38;4.93;;;;;;;;;;5015124;28;20212;-47
2021/10/03 00:29:28;;;;;;;6.32;5.05;;;;;;;;;;5024492;28;20191;-47
2021/10/03 00:31:54;;;;;;;7.43;5.35;;;;;;;;;;5034985;28;20226;-47
2021/10/03 00:34:20;;;;;;;7.63;4.97;;;;;;;;;;5030109;28;20176;-47
2021/10/03 00:36:46;;;;;;;7.00;5.55;;;;;;;;;;5034776;28;20226;-47
2021/10/03 00:39:12;;;;;;;6.93;5.18;;;;;;;;;;5034494;28;20262;-47
2021/10/03 00:41:39;;;;;;;5.95;5.20;;;;;;;;;;5026340;28;20607;-47
2021/10/03 00:44:05;;;;;;;8.82;5.10;;;;;;;;;;5017770;28;20227;-47
2021/10/03 00:46:32;;;;;;;6.63;5.10;;;;;;;;;;5014677;28;20696;-47
2021/10/03 00:48:58;;;;;;;6.25;5.38;;;;;;;;;;5015248;28;20234;-47
2021/10/03 00:51:24;;;;;;;5.57;5.03;;;;;;;;;;5033525;28;20180;-47
2021/10/03 00:53:50;;;;;;;7.68;5.70;;;;;;;;;;5031128;28;20211;-47
2021/10/03 00:56:17;;;;;;;7.35;5.50;;;;;;;;;;5018758;28;20188;-47
2021/10/03 00:58:43;;;;;;;5.60;4.50;;;;;;;;;;5034196;28;20214;-47
2021/10/03 01:01:10;;;;;;;6.32;5.28;;;;;;;;;;5034516;28;20290;-47
2021/10/03 01:03:36;;;;;;;7.15;5.25;;;;;;;;;;5027361;28;20215;-47
2021/10/03 01:06:03;;;;;;;5.70;5.10;;;;;;;;;;5025911;28;20203;-47
2021/10/03 01:08:29;;;;;;;6.50;5.35;;;;;;;;;;5015950;28;20188;-47
2021/10/03 01:10:56;;;;;;;5.47;4.90;;;;;;;;;;5021110;28;20184;-47
2021/10/03 01:13:23;;;;;;;6.03;5.38;;;;;;;;;;5014202;28;20184;-47
2021/10/03 01:15:52;;;;;;;5.68;5.10;;;;;;;;;;5015059;28;20173;-47
2021/10/03 01:18:19;;;;;;;6.00;5.10;;;;;;;;;;5014965;28;20188;-47
2021/10/03 01:20:45;;;;;;;8.85;5.43;;;;;;;;;;5014858;28;20558;-47
2021/10/03 01:23:11;;;;;;;8.30;5.85;;;;;;;;;;5024600;28;20587;-47
2021/10/03 01:25:39;;;;;;;6.15;5.43;;;;;;;;;;5014563;28;20247;-47
2021/10/03 01:28:06;;;;;;;5.95;5.35;;;;;;;;;;5033596;28;20570;-47
2021/10/03 01:30:32;;;;;;;7.93;5.85;;;;;;;;;;5031550;28;20282;-47
2021/10/03 01:32:58;;;;;;;10.60;6.03;;;;;;;;;;5034008;28;20180;-47
2021/10/03 01:35:24;;;;;;;8.38;5.60;;;;;;;;;;5033260;28;20193;-47
2021/10/03 01:37:50;;;;;;;9.20;6.03;;;;;;;;;;5029551;28;20194;-46
2021/10/03 01:40:17;;;;;;;6.45;5.75;;;;;;;;;;5028798;28;20768;-47
2021/10/03 01:42:43;;;;;;;7.53;5.97;;;;;;;;;;5033404;28;20188;-46
2021/10/03 01:45:11;;;;;;;6.47;5.88;;;;;;;;;;5032179;28;20559;-46
2021/10/03 01:47:56;;;;;;;6.30;5.35;;;;;;;;;;5033669;28;20615;-46
2021/10/03 01:50:22;;;;;;;8.13;5.85;;;;;;;;;;5026281;28;20261;-46
2021/10/03 01:52:47;;;;;;;6.47;5.78;;;;;;;;;;5016040;28;20208;-46
2021/10/03 01:55:15;;;;;;;7.22;5.80;;;;;;;;;;5019880;28;20180;-47
2021/10/03 01:57:41;;;;;;;8.20;6.32;;;;;;;;;;5032220;28;20227;-46
2021/10/03 02:00:08;;;;;;;7.50;5.80;;;;;;;;;;5021770;28;20200;-46
2021/10/03 02:02:34;;;;;;;7.07;5.85;;;;;;;;;;5019035;28;20208;-46
2021/10/03 02:05:00;;;;;;;7.72;6.00;;;;;;;;;;5036645;28;20497;-47
2021/10/03 02:07:28;;;;;;;6.82;6.13;;;;;;;;;;5033210;28;20208;-46
2021/10/03 02:09:54;;;;;;;6.50;5.82;;;;;;;;;;5036860;28;20211;-46
2021/10/03 02:12:20;;;;;;;8.18;5.93;;;;;;;;;;5025903;28;20199;-47
2021/10/03 02:14:46;;;;;;;8.73;6.05;;;;;;;;;;5020371;28;20568;-46
2021/10/03 02:17:12;;;;;;;6.93;5.90;;;;;;;;;;5017454;28;20204;-46
2021/10/03 02:19:39;;;;;;;7.22;6.53;;;;;;;;;;5028351;28;20230;-46
2021/10/03 02:22:05;;;;;;;6.75;5.88;;;;;;;;;;5034946;28;20570;-47
2021/10/03 02:24:31;;;;;;;7.93;5.95;;;;;;;;;;5027052;28;20455;-47
2021/10/03 02:26:57;;;;;;;6.40;5.65;;;;;;;;;;5017394;28;20201;-46
2021/10/03 02:29:23;;;;;;;7.00;6.30;;;;;;;;;;5017428;28;20461;-46
2021/10/03 02:31:49;;;;;;;6.90;6.20;;;;;;;;;;5017482;28;20169;-47
2021/10/03 02:34:15;;;;;;;8.27;6.20;;;;;;;;;;5030074;28;20195;-47
2021/10/03 02:36:41;;;;;;;6.95;6.25;;;;;;;;;;5034928;28;20567;-46
2021/10/03 02:39:07;;;;;;;6.18;5.60;;;;;;;;;;5037020;28;20182;-47
2021/10/03 02:41:33;;;;;;;6.30;5.50;;;;;;;;;;5037017;28;20469;-46
2021/10/03 02:44:00;;;;;;;7.13;6.10;;;;;;;;;;5036117;28;20266;-47
2021/10/03 02:46:27;;;;;;;6.65;5.85;;;;;;;;;;5035011;28;20238;-47
2021/10/03 02:48:54;;;;;;;6.82;6.13;;;;;;;;;;5032333;28;20180;-47
2021/10/03 02:51:21;;;;;;;6.28;5.68;;;;;;;;;;5022385;28;20189;-46
2021/10/03 02:53:47;;;;;;;7.25;6.22;;;;;;;;;;5023914;28;20191;-47
2021/10/03 02:56:14;;;;;;;6.18;5.57;;;;;;;;;;5017733;28;20176;-47
2021/10/03 02:58:40;;;;;;;7.72;6.15;;;;;;;;;;5032894;28;20271;-47
2021/10/03 03:01:06;;;;;;;6.60;5.88;;;;;;;;;;5016675;28;20219;-47
2021/10/03 03:03:35;;;;;;;8.73;5.90;;;;;;;;;;5019769;28;20200;-46
2021/10/03 03:06:01;;;;;;;6.10;5.50;;;;;;;;;;5036357;28;20206;-46
2021/10/03 03:08:27;;;;;;;6.57;5.55;;;;;;;;;;5035947;28;20176;-46
2021/10/03 03:10:53;;;;;;;8.18;5.50;;;;;;;;;;5036032;28;20183;-46
2021/10/03 03:13:19;;;;;;;6.38;5.63;;;;;;;;;;5034931;28;20184;-47
2021/10/03 03:15:46;;;;;;;5.80;5.20;;;;;;;;;;5031641;28;20239;-46
2021/10/03 03:18:12;;;;;;;8.25;5.90;;;;;;;;;;5036078;28;20164;-46
2021/10/03 03:20:38;;;;;;;6.57;5.88;;;;;;;;;;5036455;28;20229;-46
2021/10/03 03:23:05;;;;;;;5.80;5.30;;;;;;;;;;5016383;28;20196;-46
2021/10/03 03:25:31;;;;;;;6.75;5.65;;;;;;;;;;5016229;28;20549;-47
2021/10/03 03:27:57;;;;;;;6.28;5.68;;;;;;;;;;5020038;28;20180;-47
2021/10/03 03:30:23;;;;;;;8.18;5.43;;;;;;;;;;5019772;28;20599;-47
2021/10/03 03:32:50;;;;;;;6.20;5.55;;;;;;;;;;5026177;28;20198;-46
2021/10/03 03:35:16;;;;;;;6.38;5.78;;;;;;;;;;5023533;28;20206;-46
2021/10/03 03:37:42;;;;;;;7.93;5.63;;;;;;;;;;5034210;28;20176;-47
2021/10/03 03:40:09;;;;;;;6.30;5.43;;;;;;;;;;5020065;28;20584;-46
2021/10/03 03:42:35;;;;;;;6.53;5.55;;;;;;;;;;5016301;28;20180;-47
2021/10/03 03:45:01;;;;;;;6.28;5.45;;;;;;;;;;5031592;28;20183;-46
2021/10/03 03:47:27;;;;;;;6.82;5.85;;;;;;;;;;5021277;28;20588;-46
2021/10/03 03:49:53;;;;;;;6.80;5.78;;;;;;;;;;5020969;28;20590;-47
2021/10/03 03:52:19;;;;;;;7.07;5.50;;;;;;;;;;5017007;28;20169;-47
2021/10/03 03:54:45;;;;;;;6.68;5.18;;;;;;;;;;5025178;28;20181;-47
2021/10/03 03:57:12;;;;;;;7.15;5.65;;;;;;;;;;5021522;28;20182;-46
2021/10/03 03:59:38;;;;;;;5.78;5.28;;;;;;;;;;5033931;28;20199;-47
2021/10/03 04:02:04;;;;;;;6.13;5.53;;;;;;;;;;5023336;28;20204;-46
2021/10/03 04:04:30;;;;;;;9.23;5.90;;;;;;;;;;5030541;28;20218;-46
2021/10/03 04:06:56;;;;;;;6.97;5.78;;;;;;;;;;5022066;28;20232;-46
2021/10/03 04:09:23;;;;;;;8.60;6.03;;;;;;;;;;5015516;28;20232;-47
2021/10/03 04:11:49;;;;;;;6.55;5.65;;;;;;;;;;5021959;28;20224;-47
2021/10/03 04:14:15;;;;;;;6.65;5.72;;;;;;;;;;5015395;28;20219;-47
2021/10/03 04:16:41;;;;;;;9.15;6.03;;;;;;;;;;5017011;28;20543;-46
2021/10/03 04:19:07;;;;;;;8.15;5.75;;;;;;;;;;5015550;28;20331;-47
2021/10/03 04:21:33;;;;;;;7.93;5.93;;;;;;;;;;5015078;28;20195;-47
2021/10/03 04:23:59;;;;;;;8.30;5.72;;;;;;;;;;5029476;28;20215;-47
2021/10/03 04:26:25;;;;;;;6.22;5.35;;;;;;;;;;5033944;28;20571;-47
2021/10/03 04:28:51;;;;;;;6.30;5.63;;;;;;;;;;5018473;28;20208;-47
2021/10/03 04:31:17;;;;;;;7.03;5.30;;;;;;;;;;5034180;28;20277;-47
2021/10/03 04:33:43;;;;;;;7.60;5.80;;;;;;;;;;5020529;28;20255;-47
2021/10/03 04:36:09;;;;;;;5.93;5.05;;;;;;;;;;5016403;28;20192;-47
2021/10/03 04:38:36;;;;;;;10.05;5.82;;;;;;;;;;5015425;28;20184;-47
2021/10/03 04:41:02;;;;;;;5.78;5.22;;;;;;;;;;5025609;28;20574;-47
2021/10/03 04:43:28;;;;;;;8.82;5.28;;;;;;;;;;5030878;28;20179;-47
2021/10/03 04:45:54;;;;;;;6.20;5.45;;;;;;;;;;5034530;28;20589;-46
2021/10/03 04:48:20;;;;;;;6.22;5.63;;;;;;;;;;5034583;28;20183;-47
2021/10/03 04:50:46;;;;;;;6.28;5.63;;;;;;;;;;5032141;28;20176;-46
2021/10/03 04:53:12;;;;;;;5.90;5.25;;;;;;;;;;5021473;28;20180;-47
2021/10/03 04:55:38;;;;;;;7.63;6.28;;;;;;;;;;5030527;28;20196;-47
2021/10/03 04:58:04;;;;;;;7.03;5.78;;;;;;;;;;5034388;28;20180;-47
2021/10/03 05:00:30;;;;;;;6.47;5.75;;;;;;;;;;5025907;28;20274;-46
2021/10/03 05:02:56;;;;;;;6.57;5.90;;;;;;;;;;5018806;28;20202;-47
2021/10/03 05:05:22;;;;;;;6.35;5.38;;;;;;;;;;5033165;28;20486;-47
2021/10/03 05:07:49;;;;;;;5.75;4.95;;;;;;;;;;5015884;28;20492;-47
2021/10/03 05:10:15;;;;;;;7.88;5.75;;;;;;;;;;5028024;28;20188;-47
2021/10/03 05:12:41;;;;;;;5.88;5.32;;;;;;;;;;5014562;28;20195;-46
2021/10/03 05:15:07;;;;;;;7.40;6.07;;;;;;;;;;5025069;28;20184;-47
2021/10/03 05:17:33;;;;;;;6.40;5.80;;;;;;;;;;5025328;28;20588;-47
2021/10/03 05:19:59;;;;;;;6.32;5.68;;;;;;;;;;5023636;28;20467;-47
2021/10/03 05:22:25;;;;;;;6.75;6.03;;;;;;;;;;5031289;28;20184;-47
2021/10/03 05:24:51;;;;;;;7.00;6.10;;;;;;;;;;5027716;28;20198;-47
2021/10/03 05:27:17;;;;;;;8.25;5.70;;;;;;;;;;5033878;28;20208;-47
2021/10/03 05:29:44;;;;;;;6.38;5.78;;;;;;;;;;5033777;28;21140;-47
2021/10/03 05:32:10;;;;;;;6.10;5.50;;;;;;;;;;5014874;28;20173;-47
2021/10/03 05:34:36;;;;;;;6.35;5.57;;;;;;;;;;5016522;28;20204;-46
2021/10/03 05:37:02;;;;;;;7.40;5.65;;;;;;;;;;5020463;28;20227;-47
2021/10/03 05:39:28;;;;;;;8.70;6.10;;;;;;;;;;5038382;28;20254;-47
2021/10/03 05:41:54;;;;;;;6.13;5.20;;;;;;;;;;5037007;28;20634;-46
2021/10/03 05:44:20;;;;;;;7.53;5.72;;;;;;;;;;5037571;28;20188;-47
2021/10/03 05:46:46;;;;;;;6.65;5.40;;;;;;;;;;5037376;28;20196;-46
2021/10/03 05:49:13;;;;;;;6.25;5.60;;;;;;;;;;5020515;28;20173;-47
2021/10/03 05:51:39;;;;;;;7.50;5.55;;;;;;;;;;5028144;28;20187;-47
2021/10/03 05:54:05;;;;;;;6.32;5.70;;;;;;;;;;5022140;28;20183;-47
2021/10/03 05:56:31;;;;;;;7.90;5.82;;;;;;;;;;5037753;28;20163;-47
2021/10/03 05:58:57;;;;;;;6.78;6.03;;;;;;;;;;5029864;28;20192;-47
2021/10/03 06:01:23;;;;;;;7.15;5.53;;;;;;;;;;5025068;28;20184;-46
2021/10/03 06:03:49;;;;;;;6.13;5.50;;;;;;;;;;5037076;28;20203;-47
2021/10/03 06:06:15;;;;;;;6.45;5.65;;;;;;;;;;5036828;28;20537;-47
2021/10/03 06:08:41;;;;;;;6.78;5.63;;;;;;;;;;5026437;28;20183;-47
2021/10/03 06:11:07;;;;;;;7.32;5.72;;;;;;;;;;5017900;28;20259;-47
2021/10/03 06:13:33;;;;;;;7.95;5.72;;;;;;;;;;5017246;28;20268;-47
2021/10/03 06:15:59;;;;;;;5.93;5.22;;;;;;;;;;5017915;28;20550;-47
2021/10/03 06:18:25;;;;;;;5.85;5.25;;;;;;;;;;5023562;28;20180;-47
2021/10/03 06:20:52;;;;;;;5.90;5.35;;;;;;;;;;5037359;28;20172;-47
2021/10/03 06:23:18;;;;;;;5.93;4.85;;;;;;;;;;5035842;28;20186;-46
2021/10/03 06:25:44;;;;;;;6.38;5.28;;;;;;;;;;5031454;28;20282;-47
2021/10/03 06:28:10;;;;;;;6.65;5.72;;;;;;;;;;5017797;28;20176;-47
2021/10/03 06:30:36;;;;;;;5.53;5.03;;;;;;;;;;5025900;28;20179;-47
2021/10/03 06:33:02;;;;;;;7.35;5.70;;;;;;;;;;5021561;28;20199;-47
2021/10/03 06:35:29;;;;;;;5.50;5.00;;;;;;;;;;5017376;28;20208;-47
2021/10/03 06:37:55;;;;;;;6.20;5.60;;;;;;;;;;5023908;28;20184;-46
2021/10/03 06:40:22;;;;;;;6.18;5.28;;;;;;;;;;5034355;28;20164;-47
2021/10/03 06:42:48;;;;;;;8.43;5.97;;;;;;;;;;5027589;28;20488;-47
2021/10/03 06:45:14;;;;;;;6.72;5.30;;;;;;;;;;5033048;28;20177;-46
2021/10/03 06:47:40;;;;;;;8.35;5.55;;;;;;;;;;5017212;28;20226;-46
2021/10/03 06:50:06;;;;;;;5.93;5.32;;;;;;;;;;5019623;28;20185;-47
2021/10/03 06:52:32;;;;;;;6.35;5.18;;;;;;;;;;5036844;28;20165;-47
2021/10/03 06:54:58;;;;;;;5.68;5.13;;;;;;;;;;5024232;28;20241;-46
2021/10/03 06:57:24;;;;;;;7.32;5.85;;;;;;;;;;5019691;28;20605;-47
2021/10/03 06:59:50;;;;;;;7.70;5.30;;;;;;;;;;5024190;28;20200;-47
2021/10/03 07:02:26;;;;;;;6.65;5.40;;;;;;;;;;5016738;28;20195;-47
2021/10/03 07:04:55;;;;;;;6.03;5.43;;;;;;;;;;5034035;28;20208;-47
2021/10/03 07:07:21;;;;;;;6.72;5.38;;;;;;;;;;5032592;28;20284;-47
2021/10/03 07:09:47;;;;;;;5.38;4.88;;;;;;;;;;5016865;28;20188;-46
2021/10/03 07:12:14;;;;;;;7.07;5.50;;;;;;;;;;5032016;28;20184;-47
2021/10/03 07:14:42;;;;;;;5.90;5.13;;;;;;;;;;5019547;28;20183;-47
2021/10/03 07:17:08;;;;;;;5.50;5.00;;;;;;;;;;5017644;28;20204;-46
2021/10/03 07:19:34;;;;;;;6.18;5.30;;;;;;;;;;5016877;28;20205;-46
2021/10/03 07:22:02;;;;;;;7.50;4.88;;;;;;;;;;5027063;28;20281;-47
2021/10/03 07:24:28;;;;;;;6.93;5.05;;;;;;;;;;5016873;28;20187;-46
2021/10/03 07:26:54;;;;;;;6.90;5.20;;;;;;;;;;5026994;28;20216;-47
2021/10/03 07:29:20;;;;;;;6.50;5.35;;;;;;;;;;5021829;28;20560;-47
2021/10/03 07:31:46;;;;;;;7.68;5.30;;;;;;;;;;5033749;28;20246;-46
2021/10/03 07:34:12;;;;;;;6.40;5.05;;;;;;;;;;5035556;28;20271;-46
2021/10/03 07:36:38;;;;;;;8.35;5.03;;;;;;;;;;5026110;28;20197;-47
2021/10/03 07:39:04;;;;;;;6.45;4.78;;;;;;;;;;5026250;28;20199;-46
2021/10/03 07:41:30;;;;;;;8.38;4.95;;;;;;;;;;5034125;28;20558;-47
2021/10/03 07:43:56;;;;;;;6.68;5.13;;;;;;;;;;5019506;28;20195;-47
2021/10/03 07:46:22;;;;;;;6.88;5.00;;;;;;;;;;5016074;28;20208;-47
2021/10/03 07:48:49;;;;;;;5.60;5.00;;;;;;;;;;5015990;28;20172;-47
2021/10/03 07:51:15;;;;;;;4.70;4.20;;;;;;;;;;5016873;28;20181;-46
2021/10/03 07:53:41;;;;;;;5.88;4.75;;;;;;;;;;5016436;28;20168;-46
2021/10/03 07:56:07;;;;;;;6.63;4.78;;;;;;;;;;5031313;28;20185;-46
2021/10/03 07:58:33;;;;;;;5.15;4.65;;;;;;;;;;5015791;28;20183;-46
2021/10/03 08:00:59;;;;;;;5.60;4.18;;;;;;;;;;5031055;28;20921;-46
2021/10/03 08:03:25;;;;;;;4.78;4.38;;;;;;;;;;5030386;28;20241;-46
2021/10/03 08:05:51;;;;;;;5.45;4.78;;;;;;;;;;5026463;28;20474;-46
2021/10/03 08:08:17;;;;;;;10.02;5.15;;;;;;;;;;5015745;28;20231;-46
2021/10/03 08:10:43;;;;;;;4.80;4.40;;;;;;;;;;5016012;28;20184;-47
2021/10/03 08:13:12;;;;;;;7.40;4.60;;;;;;;;;;5014867;28;20618;-47
2021/10/03 08:15:39;;;;;;;7.20;4.70;;;;;;;;;;5015424;28;20192;-47
2021/10/03 08:18:05;;;;;;;4.88;4.47;;;;;;;;;;5014686;28;20207;-47
2021/10/03 08:20:31;;;;;;;5.15;4.47;;;;;;;;;;5023092;28;20739;-47
2021/10/03 08:22:57;;;;;;;5.28;4.78;;;;;;;;;;5029277;28;20816;-47
2021/10/03 08:25:23;;;;;;;4.93;4.43;;;;;;;;;;5016207;28;20196;-47
2021/10/03 08:27:49;;;;;;;7.72;4.72;;;;;;;;;;5015328;28;20837;-47
2021/10/03 08:30:16;;;;;;;4.93;4.53;;;;;;;;;;5030142;28;20180;-46
2021/10/03 08:32:42;;;;;;;7.95;4.95;;;;;;;;;;5030916;28;20183;-46
2021/10/03 08:35:08;;;;;;;5.22;4.70;;;;;;;;;;5034253;28;20192;-46
2021/10/03 08:37:34;;;;;;;5.32;4.70;;;;;;;;;;5022219;28;20180;-46
2021/10/03 08:40:00;;;;;;;7.90;4.65;;;;;;;;;;5015343;28;20216;-46
2021/10/03 08:42:29;;;;;;;5.63;4.97;;;;;;;;;;5034541;28;20255;-46
2021/10/03 08:44:55;;;;;;;6.30;4.88;;;;;;;;;;5031738;28;20487;-46
2021/10/03 08:47:24;;;;;;;5.05;4.55;;;;;;;;;;5033986;28;20212;-46
2021/10/03 08:49:54;;;;;;;4.68;4.28;;;;;;;;;;5032891;28;20184;-46
2021/10/03 08:52:20;;;;;;;5.15;4.63;;;;;;;;;;5028253;28;20212;-47
2021/10/03 08:54:46;;;;;;;4.80;4.30;;;;;;;;;;5024360;28;20173;-47
2021/10/03 08:57:12;;;;;;;4.05;3.65;;;;;;;;;;5024814;28;20234;-47
2021/10/03 08:59:38;;;;;;;6.07;4.47;;;;;;;;;;5014646;28;20564;-46
2021/10/03 09:02:06;;;;;;;5.30;4.80;;;;;;;;;;5014737;28;20587;-47
2021/10/03 09:04:33;;;;;;;5.20;4.13;;;;;;;;;;5028256;28;20452;-46
2021/10/03 09:07:26;;;;;;;4.88;4.45;;;;;;;;;;5016088;28;20539;-46
2021/10/03 09:09:55;;;;;;;5.88;4.38;;;;;;;;;;5020411;28;20198;-47
2021/10/03 09:12:27;;;;;;;6.90;4.50;;;;;;;;;;5023225;28;20190;-46
2021/10/03 09:14:53;;;;;;;6.55;4.38;;;;;;;;;;5038949;28;20184;-47
2021/10/03 09:17:20;;;;;;;4.38;3.97;;;;;;;;;;5038750;28;20259;-47
2021/10/03 09:20:05;;;;;;;4.90;4.43;;;;;;;;;;5038939;28;20187;-47
2021/10/03 09:22:31;;;;;;;5.07;4.57;;;;;;;;;;5040173;28;20187;-46
2021/10/03 09:24:59;;;;;;;4.60;4.13;;;;;;;;;;5020694;28;20267;-46
2021/10/03 09:27:45;;;;;;;5.53;4.25;;;;;;;;;;5023363;28;20290;-47
2021/10/03 09:30:11;;;;;;;5.00;4.50;;;;;;;;;;5025961;28;20559;-46
2021/10/03 09:32:37;;;;;;;4.43;4.03;;;;;;;;;;5036192;28;20223;-47
2021/10/03 09:35:03;;;;;;;5.75;4.88;;;;;;;;;;5021618;28;20606;-46
2021/10/03 09:37:30;;;;;;;5.03;4.50;;;;;;;;;;5021243;28;20730;-47
2021/10/03 09:40:02;;;;;;;5.43;4.35;;;;;;;;;;5021128;28;20168;-46
2021/10/03 09:42:28;;;;;;;5.13;4.63;;;;;;;;;;5021172;28;20195;-47
2021/10/03 09:45:07;;;;;;;5.25;4.75;;;;;;;;;;5027082;28;20188;-47
2021/10/03 09:47:33;;;;;;;5.65;5.05;;;;;;;;;;5036655;28;20287;-47
2021/10/03 09:49:59;;;;;;;5.53;4.82;;;;;;;;;;5029385;28;20188;-47
2021/10/03 09:52:25;;;;;;;5.68;5.00;;;;;;;;;;5037903;28;20605;-46
2021/10/03 09:54:54;;;;;;;6.20;5.07;;;;;;;;;;5021364;28;20187;-47
2021/10/03 09:57:21;;;;;;;6.15;4.82;;;;;;;;;;5021313;28;20221;-47
2021/10/03 09:59:47;;;;;;;5.53;4.88;;;;;;;;;;5036930;28;20195;-48
2021/10/03 10:02:13;;;;;;;6.35;4.68;;;;;;;;;;5040368;28;20278;-46
2021/10/03 10:04:39;;;;;;;5.25;4.70;;;;;;;;;;5031539;28;20199;-46
2021/10/03 10:07:06;;;;;;;5.22;4.72;;;;;;;;;;5039894;28;20207;-46
2021/10/03 10:09:33;;;;;;;5.72;4.60;;;;;;;;;;5040599;28;20190;-47
2021/10/03 10:12:04;;;;;;;6.65;4.68;;;;;;;;;;5039803;28;20187;-48
2021/10/03 10:14:32;;;;;;;5.68;5.07;;;;;;;;;;5039475;28;20199;-47
2021/10/03 10:17:01;;;;;;;5.90;5.30;;;;;;;;;;5040444;28;20172;-46
2021/10/03 10:19:27;;;;;;;6.70;5.18;;;;;;;;;;5039024;28;20190;-46
2021/10/03 10:22:12;;;;;;;5.93;5.30;;;;;;;;;;5036900;28;20547;-47
2021/10/03 10:24:47;;;;;;;5.65;5.10;;;;;;;;;;5036395;28;20179;-47
2021/10/03 10:27:19;;;;;;;7.72;5.15;;;;;;;;;;5020796;28;20254;-47
2021/10/03 10:29:49;;;;;;;5.65;4.93;;;;;;;;;;5017589;28;20181;-47
2021/10/03 10:32:15;;;;;;;6.43;5.43;;;;;;;;;;5034560;28;20581;-47
2021/10/03 10:34:59;;;;;;;6.35;4.85;;;;;;;;;;5036544;28;20196;-47
2021/10/03 10:37:45;;;;;;;5.65;5.03;;;;;;;;;;5036571;28;20184;-46
2021/10/03 10:40:23;;;;;;;5.55;4.85;;;;;;;;;;5022698;28;20184;-47
2021/10/03 10:42:52;;;;;;;5.63;4.50;;;;;;;;;;5023159;28;20946;-46
2021/10/03 10:45:27;;;;;;;6.25;5.18;;;;;;;;;;5023291;28;20196;-46
2021/10/03 10:48:02;;;;;;;5.47;4.95;;;;;;;;;;5017636;28;20196;-46
2021/10/03 10:50:28;;;;;;;6.57;5.10;;;;;;;;;;5018344;28;20176;-45
2021/10/03 10:53:14;;;;;;;4.82;4.43;;;;;;;;;;5023379;28;20190;-46
2021/10/03 10:55:40;;;;;;;6.93;5.00;;;;;;;;;;5023544;28;20283;-46
2021/10/03 10:58:08;;;;;;;5.85;5.35;;;;;;;;;;5017068;28;20168;-46
2021/10/03 11:00:46;;;;;;;5.40;4.90;;;;;;;;;;5018114;28;20188;-46
2021/10/03 11:03:12;;;;;;;5.80;5.13;;;;;;;;;;5021367;28;20190;-46
2021/10/03 11:05:39;;;;;;;5.50;5.00;;;;;;;;;;5036176;28;20206;-46
2021/10/03 11:08:16;;;;;;;5.30;4.80;;;;;;;;;;5035694;28;20172;-46
2021/10/03 11:10:57;;;;;;;5.28;4.78;;;;;;;;;;5034623;28;20191;-46
2021/10/03 11:13:43;;;;;;;6.25;4.65;;;;;;;;;;5032793;28;20547;-46
2021/10/03 11:16:26;;;;;;;6.28;4.85;;;;;;;;;;5035979;28;20194;-46
2021/10/03 11:18:54;;;;;;;6.45;4.70;;;;;;;;;;5036489;28;20171;-46
2021/10/03 11:21:30;;;;;;;5.32;4.82;;;;;;;;;;5020026;28;20251;-46
2021/10/03 11:23:57;;;;;;;6.80;5.30;;;;;;;;;;5016307;28;20295;-46
2021/10/03 11:26:23;;;;;;;6.97;4.80;;;;;;;;;;5016288;28;20606;-46
2021/10/03 11:28:56;;;;;;;9.45;5.00;;;;;;;;;;5017458;28;20183;-46
2021/10/03 11:31:44;;;;;;;5.28;4.78;;;;;;;;;;5015017;28;20212;-46
2021/10/03 11:34:24;;;;;;;5.88;5.10;;;;;;;;;;5023909;28;20502;-46
2021/10/03 11:36:50;;;;;;;6.90;5.25;;;;;;;;;;5016237;28;20168;-46
2021/10/03 11:39:16;;;;;;;5.50;5.00;;;;;;;;;;5016213;28;20188;-46
2021/10/03 11:41:49;;;;;;;5.57;5.07;;;;;;;;;;5016379;28;20188;-46
2021/10/03 11:44:21;;;;;;;6.22;5.30;;;;;;;;;;5025399;28;20188;-46
2021/10/03 11:47:01;;;;;;;6.47;4.88;;;;;;;;;;5033360;28;20226;-46
2021/10/03 11:49:28;;;;;;;5.70;5.03;;;;;;;;;;5016041;28;20491;-46
2021/10/03 11:51:55;;;;;;;6.60;5.50;;;;;;;;;;5016075;28;20181;-46
2021/10/03 11:54:28;;;;;;;6.70;5.40;;;;;;;;;;5026956;28;20502;-46
2021/10/03 11:56:54;;;;;;;5.75;5.10;;;;;;;;;;5015590;28;20169;-46
2021/10/03 11:59:20;;;;;;;5.75;5.07;;;;;;;;;;5016066;28;20180;-46
2021/10/03 12:01:46;;;;;;;6.22;5.28;;;;;;;;;;5020840;28;20192;-46
2021/10/03 12:04:25;;;;;;;6.25;5.47;;;;;;;;;;5031058;28;20206;-46
2021/10/03 12:06:51;;;;;;;7.00;5.05;;;;;;;;;;5035224;28;20330;-46
2021/10/03 12:09:17;;;;;;;5.38;4.88;;;;;;;;;;5034596;28;20172;-46
2021/10/03 12:11:50;;;;;;;5.63;5.13;;;;;;;;;;5018078;28;20958;-46
2021/10/03 12:14:16;;;;;;;7.10;5.97;;;;;;;;;;5018145;28;20318;-46
2021/10/03 12:16:56;;;;;;;7.05;5.40;;;;;;;;;;5033234;28;20215;-46
2021/10/03 12:19:22;;;;;;;7.20;5.45;;;;;;;;;;5035383;28;20171;-46
2021/10/03 12:21:48;;;;;;;5.80;5.20;;;;;;;;;;5035284;28;20431;-46
2021/10/03 12:24:14;;;;;;;6.80;5.30;;;;;;;;;;5034101;28;20270;-46
2021/10/03 12:26:45;;;;;;;6.05;5.50;;;;;;;;;;5034242;28;20218;-46
2021/10/03 12:29:18;;;;;;;7.82;5.88;;;;;;;;;;5018858;28;20267;-46
2021/10/03 12:31:48;;;;;;;6.93;5.43;;;;;;;;;;5022006;28;20187;-46
2021/10/03 12:34:14;;;;;;;6.65;5.45;;;;;;;;;;5030592;28;20191;-46
2021/10/03 12:36:49;;;;;;;6.72;6.03;;;;;;;;;;5025977;28;20456;-46
2021/10/03 12:39:16;;;;;;;7.15;5.82;;;;;;;;;;5019136;28;20599;-46
2021/10/03 12:41:42;;;;;;;6.30;5.60;;;;;;;;;;5020175;28;20221;-46
2021/10/03 12:44:08;;;;;;;6.57;5.40;;;;;;;;;;5030223;28;20184;-46
2021/10/03 12:46:35;;;;;;;6.40;5.50;;;;;;;;;;5023776;28;20211;-46
2021/10/03 12:49:01;;;;;;;6.00;5.40;;;;;;;;;;5021982;28;20168;-46
2021/10/03 12:51:27;;;;;;;5.65;4.85;;;;;;;;;;5022755;28;20191;-46
2021/10/03 12:53:53;;;;;;;6.25;5.65;;;;;;;;;;5029257;28;20187;-46
2021/10/03 12:56:19;;;;;;;7.97;5.75;;;;;;;;;;5022057;28;20229;-46
2021/10/03 12:58:45;;;;;;;6.10;5.50;;;;;;;;;;5033143;28;20617;-46
2021/10/03 13:01:11;;;;;;;5.72;5.22;;;;;;;;;;5014852;28;20303;-46
2021/10/03 13:03:41;;;;;;;6.90;5.30;;;;;;;;;;5014605;28;20707;-46
2021/10/03 13:06:07;;;;;;;6.57;5.45;;;;;;;;;;5023085;28;20309;-46
2021/10/03 13:08:33;;;;;;;6.05;5.43;;;;;;;;;;5018474;28;20180;-46
2021/10/03 13:11:00;;;;;;;5.97;5.32;;;;;;;;;;5014977;28;20543;-46
2021/10/03 13:13:26;;;;;;;6.70;5.07;;;;;;;;;;5014174;28;20172;-46
2021/10/03 13:15:52;;;;;;;6.05;5.45;;;;;;;;;;5018355;28;20187;-46
2021/10/03 13:18:18;;;;;;;5.70;5.20;;;;;;;;;;5025600;28;20191;-46
2021/10/03 13:20:44;;;;;;;8.93;5.70;;;;;;;;;;5031107;28;20215;-46
2021/10/03 13:23:10;;;;;;;6.00;5.38;;;;;;;;;;5026155;28;20187;-46
2021/10/03 13:25:37;;;;;;;6.57;5.72;;;;;;;;;;5030639;28;20183;-46
2021/10/03 13:28:03;;;;;;;7.00;5.60;;;;;;;;;;5022463;28;20183;-47
2021/10/03 13:30:29;;;;;;;6.25;5.60;;;;;;;;;;5025123;28;20247;-46
2021/10/03 13:32:55;;;;;;;6.25;5.28;;;;;;;;;;5032764;28;20203;-46
2021/10/03 13:35:22;;;;;;;6.15;5.55;;;;;;;;;;5018616;28;20247;-46
2021/10/03 13:37:48;;;;;;;6.10;5.45;;;;;;;;;;5014619;28;20215;-46
2021/10/03 13:40:14;;;;;;;7.57;5.47;;;;;;;;;;5014813;28;20204;-46
2021/10/03 13:42:40;;;;;;;5.88;5.28;;;;;;;;;;5029379;28;20207;-46
2021/10/03 13:45:07;;;;;;;5.90;4.45;;;;;;;;;;5033509;28;20506;-46
2021/10/03 13:47:33;;;;;;;6.55;5.20;;;;;;;;;;5024395;28;20204;-46
2021/10/03 13:49:59;;;;;;;6.43;5.10;;;;;;;;;;5032669;28;20180;-46
2021/10/03 13:52:25;;;;;;;5.65;5.15;;;;;;;;;;5027609;28;20181;-46
2021/10/03 13:54:51;;;;;;;5.57;5.07;;;;;;;;;;5023798;28;20225;-46
2021/10/03 13:57:17;;;;;;;7.22;5.32;;;;;;;;;;5037317;28;20184;-46
2021/10/03 13:59:43;;;;;;;5.88;5.32;;;;;;;;;;5037237;28;20183;-46
2021/10/03 14:02:10;;;;;;;5.22;4.72;;;;;;;;;;5037466;28;20180;-46
2021/10/03 14:04:36;;;;;;;5.95;5.40;;;;;;;;;;5036210;28;20266;-46
2021/10/03 14:07:02;;;;;;;6.43;5.45;;;;;;;;;;5026159;28;20212;-46
2021/10/03 14:09:28;;;;;;;6.00;5.40;;;;;;;;;;5030267;28;20176;-46
2021/10/03 14:11:54;;;;;;;5.07;4.57;;;;;;;;;;5034626;28;20476;-46
2021/10/03 14:14:20;;;;;;;7.25;5.20;;;;;;;;;;5036762;28;20188;-46
2021/10/03 14:16:46;;;;;;;6.13;4.63;;;;;;;;;;5037304;28;20168;-46
2021/10/03 14:19:12;;;;;;;6.97;4.68;;;;;;;;;;5036568;28;20482;-46
2021/10/03 14:21:38;;;;;;;5.45;4.82;;;;;;;;;;5021614;28;20199;-46
2021/10/03 14:24:05;;;;;;;6.63;5.22;;;;;;;;;;5036744;28;20221;-47
2021/10/03 14:26:31;;;;;;;5.75;5.25;;;;;;;;;;5036867;28;20577;-46
2021/10/03 14:28:56;;;;;;;6.05;5.45;;;;;;;;;;5021348;28;20272;-46
2021/10/03 14:31:22;;;;;;;6.75;5.55;;;;;;;;;;5017683;28;20263;-46
2021/10/03 14:33:48;;;;;;;5.57;5.03;;;;;;;;;;5018019;28;20647;-46
2021/10/03 14:36:14;;;;;;;7.38;5.88;;;;;;;;;;5028354;28;20199;-46
2021/10/03 14:38:40;;;;;;;6.97;5.47;;;;;;;;;;5017318;28;20619;-46
2021/10/03 14:41:06;;;;;;;6.53;5.47;;;;;;;;;;5018558;28;20185;-46
2021/10/03 14:43:34;;;;;;;6.53;5.25;;;;;;;;;;5021592;28;20448;-46